Time;durP1;ratioP1;P1;durP2;ratioP2;P2;SDS_P1;SDS_P2;PMS_P1;PMS_P2;Temp;Humidity;BMP_temperature;BMP_pressure;BME280_temperature;BME280_humidity;BME280_pressure;Samples;Min_cycle;Max_cycle;Signal;HPM_P1;HPM_P2
2022/11/20 00:02:20;;;;;;;83.33;15.80;;;4.40;99.90;;;;;;5082933;28;20234;-86
2022/11/20 00:04:48;;;;;;;80.97;14.93;;;4.40;99.90;;;;;;5078412;28;20183;-86
2022/11/20 00:07:14;;;;;;;80.97;14.13;;;4.50;99.90;;;;;;5082704;28;20171;-86
2022/11/20 00:09:40;;;;;;;87.10;15.40;;;4.40;99.90;;;;;;5084361;28;20270;-86
2022/11/20 00:12:05;;;;;;;82.20;15.23;;;4.50;99.90;;;;;;5084348;28;20209;-86
2022/11/20 00:14:31;;;;;;;82.40;15.23;;;4.40;99.90;;;;;;5082943;28;20191;-86
2022/11/20 00:16:57;;;;;;;83.67;17.00;;;4.30;99.90;;;;;;5082084;28;20200;-86
2022/11/20 00:19:22;;;;;;;85.10;17.10;;;4.30;99.90;;;;;;5083289;28;20203;-86
2022/11/20 00:21:51;;;;;;;87.30;18.60;;;4.30;99.90;;;;;;5084007;28;20633;-86
2022/11/20 00:24:17;;;;;;;81.18;15.50;;;4.20;99.90;;;;;;5084234;28;20167;-86
2022/11/20 00:26:42;;;;;;;83.70;15.70;;;4.30;99.90;;;;;;5083452;28;20171;-86
2022/11/20 00:29:10;;;;;;;88.87;18.53;;;4.30;99.90;;;;;;5084074;28;20408;-87
2022/11/20 00:31:35;;;;;;;84.38;17.40;;;4.30;99.90;;;;;;5083159;28;20168;-86
2022/11/20 00:34:01;;;;;;;87.20;17.50;;;4.30;99.90;;;;;;5083610;28;20174;-86
2022/11/20 00:36:28;;;;;;;84.10;16.27;;;4.20;99.90;;;;;;5083996;28;20214;-86
2022/11/20 00:38:56;;;;;;;85.43;19.40;;;4.20;99.90;;;;;;5082450;28;20193;-86
2022/11/20 00:41:22;;;;;;;84.00;15.73;;;4.10;99.90;;;;;;5083802;28;20164;-86
2022/11/20 00:43:48;;;;;;;88.38;17.40;;;4.10;99.90;;;;;;5084149;28;20676;-86
2022/11/20 00:46:16;;;;;;;85.57;17.25;;;4.20;99.90;;;;;;5083474;28;20168;-86
2022/11/20 00:48:42;;;;;;;83.28;16.65;;;4.20;99.90;;;;;;5083057;28;20652;-86
2022/11/20 00:51:10;;;;;;;83.50;18.30;;;4.10;99.90;;;;;;5082222;28;20286;-86
2022/11/20 00:53:36;;;;;;;100.15;17.33;;;4.00;99.90;;;;;;5083478;28;20231;-86
2022/11/20 00:56:06;;;;;;;80.20;15.97;;;4.10;99.90;;;;;;5083546;28;20164;-86
2022/11/20 00:58:37;;;;;;;83.40;15.25;;;4.20;99.90;;;;;;5083179;28;20199;-86
2022/11/20 01:01:09;;;;;;;85.70;17.63;;;4.30;99.90;;;;;;5084041;28;20179;-86
2022/11/20 01:03:40;;;;;;;86.05;15.95;;;4.40;99.90;;;;;;5083962;28;20152;-86
2022/11/20 01:06:12;;;;;;;86.38;15.98;;;4.50;99.90;;;;;;5082947;28;20156;-86
2022/11/20 01:08:38;;;;;;;85.38;15.30;;;4.50;99.90;;;;;;5083343;28;20157;-86
2022/11/20 01:11:08;;;;;;;81.07;15.10;;;4.40;99.90;;;;;;5082937;28;20186;-86
2022/11/20 01:13:37;;;;;;;82.70;15.60;;;4.30;99.90;;;;;;5083481;28;20810;-86
2022/11/20 01:16:13;;;;;;;82.55;14.80;;;4.30;99.90;;;;;;5083546;28;20171;-86
2022/11/20 01:18:41;;;;;;;81.05;14.95;;;4.20;99.90;;;;;;5082190;28;20171;-86
2022/11/20 01:21:10;;;;;;;84.88;15.85;;;4.20;99.90;;;;;;5081742;28;20184;-86
2022/11/20 01:23:38;;;;;;;84.25;15.50;;;4.30;99.90;;;;;;5083826;28;20184;-86
2022/11/20 01:26:24;;;;;;;81.13;15.18;;;4.30;99.90;;;;;;5084037;28;20156;-86
2022/11/20 01:28:51;;;;;;;81.57;15.63;;;4.20;99.90;;;;;;5082128;28;20156;-86
2022/11/20 01:31:22;;;;;;;79.93;14.95;;;4.20;99.90;;;;;;5082926;28;20195;-86
2022/11/20 01:33:51;;;;;;;82.53;14.07;;;4.30;99.90;;;;;;5080805;28;20148;-86
2022/11/20 01:36:19;;;;;;;82.88;16.58;;;4.20;99.90;;;;;;5078694;28;20171;-86
2022/11/20 01:38:45;;;;;;;82.60;15.73;;;4.30;99.90;;;;;;5081707;28;20568;-86
2022/11/20 01:43:57;;;;;;;83.60;15.63;;;4.30;99.90;;;;;;5082239;28;20229;-86
2022/11/20 01:46:23;;;;;;;83.70;15.57;;;4.20;99.90;;;;;;5082445;28;20167;-86
2022/11/20 01:49:10;;;;;;;83.77;14.67;;;4.30;99.90;;;;;;5080162;28;20167;-86
2022/11/20 01:51:46;;;;;;;83.38;16.17;;;4.20;99.90;;;;;;5080625;28;20408;-86
2022/11/20 01:54:16;;;;;;;82.25;14.95;;;4.30;99.90;;;;;;5082727;28;20251;-86
2022/11/20 01:56:45;;;;;;;86.22;16.63;;;4.20;99.90;;;;;;5081250;28;20263;-86
2022/11/20 01:59:15;;;;;;;83.35;16.52;;;4.20;99.90;;;;;;5081443;28;20160;-86
2022/11/20 02:01:40;;;;;;;82.00;14.85;;;4.10;99.90;;;;;;5082087;28;20156;-86
2022/11/20 02:04:08;;;;;;;85.80;16.63;;;4.00;99.90;;;;;;5082490;28;20510;-86
2022/11/20 02:06:40;;;;;;;84.65;16.98;;;4.00;99.90;;;;;;5082317;28;20175;-86
2022/11/20 02:09:05;;;;;;;81.70;15.23;;;3.90;99.90;;;;;;5081763;28;20159;-87
2022/11/20 02:11:31;;;;;;;81.33;15.30;;;3.80;99.90;;;;;;5082342;28;20168;-86
2022/11/20 02:13:58;;;;;;;82.83;16.03;;;3.80;99.90;;;;;;5081043;28;20410;-86
2022/11/20 02:16:27;;;;;;;80.80;15.95;;;3.90;99.90;;;;;;5081553;28;20405;-86
2022/11/20 02:18:55;;;;;;;86.28;16.90;;;4.00;99.90;;;;;;5081029;28;20168;-86
2022/11/20 02:21:40;;;;;;;83.25;15.30;;;4.00;99.90;;;;;;5081408;28;20261;-86
2022/11/20 02:24:07;;;;;;;81.13;14.50;;;4.00;99.90;;;;;;5081822;28;20155;-86
2022/11/20 02:26:56;;;;;;;80.85;13.90;;;4.10;99.90;;;;;;5082039;28;20171;-86
2022/11/20 02:29:39;;;;;;;82.43;15.43;;;4.00;99.90;;;;;;5080840;28;20191;-87
2022/11/20 02:32:05;;;;;;;83.30;15.95;;;4.10;99.90;;;;;;5080953;28;20155;-86
2022/11/20 02:34:31;;;;;;;85.10;15.30;;;4.00;99.90;;;;;;5079827;28;20167;-86
2022/11/20 02:36:58;;;;;;;82.65;15.75;;;4.10;99.90;;;;;;5079395;28;20449;-86
2022/11/20 02:39:27;;;;;;;82.30;14.85;;;4.10;99.90;;;;;;5081282;28;20179;-86
2022/11/20 02:41:56;;;;;;;82.05;16.13;;;4.10;99.90;;;;;;5080383;28;20641;-86
2022/11/20 02:44:22;;;;;;;86.97;16.40;;;4.00;99.90;;;;;;5081098;28;20183;-86
2022/11/20 02:46:48;;;;;;;83.50;15.00;;;4.00;99.90;;;;;;5081777;28;20198;-86
2022/11/20 02:49:14;;;;;;;84.17;16.20;;;4.00;99.90;;;;;;5083149;28;20167;-86
2022/11/20 02:51:39;;;;;;;87.37;16.83;;;4.00;99.90;;;;;;5155572;22;20217;-85
2022/11/20 02:54:05;;;;;;;83.60;16.00;;;4.00;99.90;;;;;;5243002;22;20658;-85
2022/11/20 02:56:31;;;;;;;82.87;15.40;;;4.10;99.90;;;;;;5099579;28;20220;-85
2022/11/20 02:58:56;;;;;;;84.00;15.10;;;4.10;99.90;;;;;;5081572;28;20170;-85
2022/11/20 03:01:22;;;;;;;81.87;15.80;;;4.20;99.90;;;;;;5098177;28;20431;-85
2022/11/20 03:03:48;;;;;;;81.60;15.17;;;4.10;99.90;;;;;;5097985;28;20199;-85
2022/11/20 03:06:15;;;;;;;83.23;14.50;;;4.10;99.90;;;;;;5098147;28;20162;-85
2022/11/20 03:08:41;;;;;;;81.43;14.70;;;4.20;99.90;;;;;;5097860;28;20401;-85
2022/11/20 03:11:07;;;;;;;84.10;17.20;;;4.20;99.90;;;;;;5097516;28;20179;-85
2022/11/20 03:13:34;;;;;;;82.65;15.13;;;4.20;99.90;;;;;;5099719;28;20400;-85
2022/11/20 03:16:18;;;;;;;83.47;15.48;;;4.20;99.90;;;;;;5100697;28;20226;-85
2022/11/20 03:18:46;;;;;;;82.82;16.05;;;4.10;99.90;;;;;;5101297;28;20169;-85
2022/11/20 03:21:13;;;;;;;81.13;14.82;;;4.10;99.90;;;;;;5100061;28;20183;-85
2022/11/20 03:23:39;;;;;;;84.60;15.55;;;4.10;99.90;;;;;;5101143;28;20155;-85
2022/11/20 03:26:09;;;;;;;84.68;15.35;;;4.10;99.90;;;;;;5100877;28;20167;-85
2022/11/20 03:28:35;;;;;;;80.93;14.45;;;4.20;99.90;;;;;;5101117;28;20159;-85
2022/11/20 03:31:12;;;;;;;84.33;15.00;;;4.20;99.90;;;;;;5100934;28;20221;-85
2022/11/20 03:33:39;;;;;;;81.97;14.75;;;4.20;99.90;;;;;;5101073;28;20412;-85
2022/11/20 03:36:07;;;;;;;82.82;16.75;;;4.20;99.90;;;;;;5100461;28;20240;-85
2022/11/20 03:38:33;;;;;;;81.03;15.05;;;4.20;99.90;;;;;;5100108;28;20190;-85
2022/11/20 03:41:08;;;;;;;84.13;16.20;;;4.20;99.90;;;;;;5098912;28;20191;-85
2022/11/20 03:43:34;;;;;;;82.03;15.23;;;4.20;99.90;;;;;;5099654;28;20223;-85
2022/11/20 03:46:00;;;;;;;81.38;14.70;;;4.20;99.90;;;;;;5100372;28;20243;-85
2022/11/20 03:48:26;;;;;;;82.73;16.30;;;4.20;99.90;;;;;;5098738;28;20186;-85
2022/11/20 03:50:53;;;;;;;84.72;16.50;;;4.20;99.90;;;;;;5082435;28;20428;-85
2022/11/20 03:53:19;;;;;;;83.75;16.85;;;4.30;99.90;;;;;;5100439;28;20644;-85
2022/11/20 03:55:50;;;;;;;82.95;15.57;;;4.20;99.90;;;;;;5083278;28;20181;-85
2022/11/20 03:58:15;;;;;;;83.25;17.10;;;4.20;99.90;;;;;;5098628;28;20265;-85
2022/11/20 04:00:41;;;;;;;83.97;16.33;;;4.20;99.90;;;;;;5099417;28;20214;-85
2022/11/20 04:03:07;;;;;;;83.13;16.10;;;4.20;99.90;;;;;;5098595;28;20167;-86
2022/11/20 04:05:34;;;;;;;83.80;16.63;;;4.20;99.90;;;;;;5099484;28;20160;-85
2022/11/20 04:08:03;;;;;;;87.22;17.77;;;4.30;99.90;;;;;;5097579;28;20640;-85
2022/11/20 04:10:29;;;;;;;86.20;17.30;;;4.30;99.90;;;;;;5096455;28;20222;-85
2022/11/20 04:12:58;;;;;;;87.30;19.13;;;4.20;99.90;;;;;;5096190;28;20167;-85
2022/11/20 04:15:23;;;;;;;90.18;18.10;;;4.20;99.90;;;;;;5099467;28;20401;-85
2022/11/20 04:17:49;;;;;;;91.00;20.10;;;4.20;99.90;;;;;;5098550;28;20187;-85
2022/11/20 04:20:15;;;;;;;87.83;17.33;;;4.20;99.90;;;;;;5099160;28;20183;-85
2022/11/20 04:22:40;;;;;;;91.00;19.00;;;4.20;99.90;;;;;;5099040;28;20715;-85
2022/11/20 04:25:06;;;;;;;92.23;18.53;;;4.20;99.90;;;;;;5097465;28;20261;-85
2022/11/20 04:27:32;;;;;;;88.07;18.60;;;4.10;99.90;;;;;;5098695;28;20164;-85
2022/11/20 04:29:58;;;;;;;91.40;19.40;;;4.10;99.90;;;;;;5102516;28;20221;-85
2022/11/20 04:32:23;;;;;;;91.67;20.73;;;4.10;99.90;;;;;;5099396;28;20167;-85
2022/11/20 04:34:49;;;;;;;90.67;18.13;;;4.10;99.90;;;;;;5097738;28;20163;-86
2022/11/20 04:37:18;;;;;;;92.80;19.37;;;4.10;99.90;;;;;;5097090;28;20191;-86
2022/11/20 04:39:43;;;;;;;90.30;18.17;;;4.10;99.90;;;;;;5096505;28;20195;-85
2022/11/20 04:42:31;;;;;;;90.27;18.80;;;4.10;99.90;;;;;;5095557;28;20159;-86
2022/11/20 04:44:57;;;;;;;86.47;15.20;;;4.10;99.90;;;;;;5104236;28;20148;-85
2022/11/20 04:47:23;;;;;;;88.88;18.83;;;4.10;99.90;;;;;;5108274;28;20173;-85
2022/11/20 04:49:49;;;;;;;89.28;18.45;;;4.00;99.90;;;;;;5102741;28;20189;-85
2022/11/20 04:52:15;;;;;;;89.10;18.17;;;4.10;99.90;;;;;;5103188;28;20175;-85
2022/11/20 04:54:40;;;;;;;90.97;19.00;;;4.10;99.90;;;;;;5102326;28;20182;-85
2022/11/20 04:57:06;;;;;;;88.53;18.27;;;4.10;99.90;;;;;;5101357;28;20221;-85
2022/11/20 04:59:31;;;;;;;87.97;18.20;;;4.10;99.90;;;;;;5102518;28;20206;-85
2022/11/20 05:01:57;;;;;;;90.87;19.63;;;4.20;99.90;;;;;;5102294;28;20163;-85
2022/11/20 05:04:23;;;;;;;89.73;20.50;;;4.20;99.90;;;;;;5103010;28;20171;-85
2022/11/20 05:06:50;;;;;;;88.77;18.70;;;4.30;99.90;;;;;;5103725;28;20167;-85
2022/11/20 05:09:15;;;;;;;91.47;19.42;;;4.30;99.90;;;;;;5102528;28;20636;-85
2022/11/20 05:11:41;;;;;;;87.13;18.60;;;4.40;99.90;;;;;;5102116;28;20250;-85
2022/11/20 05:14:06;;;;;;;89.07;18.60;;;4.40;99.90;;;;;;5102975;28;20171;-85
2022/11/20 05:16:35;;;;;;;89.87;18.13;;;4.50;99.90;;;;;;5103185;28;20727;-85
2022/11/20 05:19:02;;;;;;;89.47;19.75;;;4.40;99.90;;;;;;5104269;28;20159;-84
2022/11/20 05:21:29;;;;;;;90.57;18.95;;;4.50;99.90;;;;;;5103754;28;20167;-85
2022/11/20 05:23:55;;;;;;;86.78;17.77;;;4.50;99.90;;;;;;5102294;28;20167;-85
2022/11/20 05:26:22;;;;;;;87.90;18.10;;;4.60;99.90;;;;;;5102566;28;20170;-84
2022/11/20 05:28:48;;;;;;;87.53;17.63;;;4.60;99.90;;;;;;5103123;28;20155;-85
2022/11/20 05:31:19;;;;;;;90.38;18.08;;;4.60;99.90;;;;;;5100553;28;20179;-85
2022/11/20 05:33:45;;;;;;;89.75;19.10;;;4.60;99.90;;;;;;5100370;28;20232;-85
2022/11/20 05:36:12;;;;;;;92.15;18.10;;;4.60;99.90;;;;;;5099879;28;20174;-85
2022/11/20 05:38:40;;;;;;;89.32;19.10;;;4.50;99.90;;;;;;5098906;28;20737;-85
2022/11/20 05:41:08;;;;;;;89.30;17.98;;;4.50;99.90;;;;;;5099484;28;20240;-85
2022/11/20 05:43:38;;;;;;;96.10;19.85;;;4.50;99.90;;;;;;5117197;22;20316;-85
2022/11/20 05:46:05;;;;;;;90.32;17.63;;;4.60;99.90;;;;;;5102520;28;20156;-85
2022/11/20 05:48:33;;;;;;;87.80;18.77;;;4.60;99.90;;;;;;5102392;28;20163;-85
2022/11/20 05:51:00;;;;;;;91.22;18.67;;;4.60;99.90;;;;;;5102489;28;20238;-85
2022/11/20 05:53:26;;;;;;;87.32;17.33;;;4.60;99.90;;;;;;5101946;28;20159;-85
2022/11/20 05:56:07;;;;;;;89.53;17.87;;;4.60;99.90;;;;;;5100535;28;20186;-85
2022/11/20 05:58:34;;;;;;;89.00;17.10;;;4.50;99.90;;;;;;5101656;28;20608;-85
2022/11/20 06:01:14;;;;;;;88.55;18.30;;;4.50;99.90;;;;;;5101289;28;20210;-85
2022/11/20 06:03:42;;;;;;;85.97;15.90;;;4.50;99.90;;;;;;5103053;28;20169;-85
2022/11/20 06:06:08;;;;;;;86.72;16.38;;;4.50;99.90;;;;;;5102359;28;20212;-85
2022/11/20 06:08:34;;;;;;;86.45;16.83;;;4.50;99.90;;;;;;5101734;28;20163;-85
2022/11/20 06:11:09;;;;;;;86.05;16.77;;;4.50;99.90;;;;;;5101012;28;20195;-85
2022/11/20 06:13:34;;;;;;;88.25;17.25;;;4.50;99.90;;;;;;5102829;28;20159;-85
2022/11/20 06:16:01;;;;;;;86.70;17.50;;;4.50;99.90;;;;;;5101270;28;20192;-85
2022/11/20 06:18:30;;;;;;;86.47;16.48;;;4.50;99.90;;;;;;5101534;28;20437;-85
2022/11/20 06:21:05;;;;;;;85.03;17.35;;;4.50;99.90;;;;;;5102041;28;20194;-85
2022/11/20 06:23:32;;;;;;;85.25;16.50;;;4.40;99.90;;;;;;5101896;28;20644;-85
2022/11/20 06:26:05;;;;;;;96.97;18.30;;;4.50;99.90;;;;;;5103010;28;20163;-85
2022/11/20 06:28:31;;;;;;;86.47;18.40;;;4.50;99.90;;;;;;5102368;28;20159;-85
2022/11/20 06:30:57;;;;;;;85.55;16.35;;;4.40;99.90;;;;;;5103068;28;20191;-85
2022/11/20 06:33:22;;;;;;;87.93;17.90;;;4.50;99.90;;;;;;5102630;28;20170;-85
2022/11/20 06:35:48;;;;;;;88.73;16.90;;;4.50;99.90;;;;;;5102768;28;20163;-85
2022/11/20 06:38:14;;;;;;;87.40;17.17;;;4.50;99.90;;;;;;5100967;28;20254;-85
2022/11/20 06:40:41;;;;;;;93.60;17.37;;;4.50;99.90;;;;;;5102565;28;20190;-86
2022/11/20 06:43:06;;;;;;;89.60;18.48;;;4.60;99.90;;;;;;5102755;28;20191;-85
2022/11/20 06:45:32;;;;;;;82.90;15.37;;;4.50;99.90;;;;;;5101427;28;20174;-85
2022/11/20 06:47:58;;;;;;;88.67;17.63;;;4.50;99.90;;;;;;5101465;28;20822;-85
2022/11/20 06:50:24;;;;;;;86.50;16.87;;;4.40;99.90;;;;;;5102554;28;20549;-85
2022/11/20 06:52:49;;;;;;;91.10;19.70;;;4.40;99.90;;;;;;5103013;28;20445;-85
2022/11/20 06:55:15;;;;;;;88.97;18.03;;;4.40;99.90;;;;;;5103439;28;20170;-85
2022/11/20 06:57:41;;;;;;;87.87;17.13;;;4.30;99.90;;;;;;5102196;28;20229;-85
2022/11/20 07:00:07;;;;;;;91.50;20.60;;;4.30;99.90;;;;;;5101645;28;20259;-85
2022/11/20 07:02:32;;;;;;;88.07;17.70;;;4.30;99.90;;;;;;5100908;28;20222;-85
2022/11/20 07:04:58;;;;;;;87.63;18.67;;;4.40;99.90;;;;;;5101296;28;20201;-85
2022/11/20 07:07:24;;;;;;;86.43;17.27;;;4.40;99.90;;;;;;5101898;28;20163;-85
2022/11/20 07:09:50;;;;;;;91.30;18.73;;;4.40;99.90;;;;;;5102822;28;20191;-85
2022/11/20 07:12:15;;;;;;;90.20;19.63;;;4.40;99.90;;;;;;5102266;28;20163;-85
2022/11/20 07:14:41;;;;;;;86.60;18.77;;;4.40;99.90;;;;;;5103974;28;20398;-85
2022/11/20 07:17:07;;;;;;;93.23;17.90;;;4.40;99.90;;;;;;5102199;28;20187;-85
2022/11/20 07:19:32;;;;;;;89.20;17.63;;;4.50;99.90;;;;;;5102611;28;20191;-85
2022/11/20 07:21:58;;;;;;;87.57;19.83;;;4.60;99.90;;;;;;5102676;28;20201;-85
2022/11/20 07:24:24;;;;;;;86.77;16.17;;;4.60;99.90;;;;;;5102772;28;20199;-85
2022/11/20 07:26:50;;;;;;;92.67;21.50;;;4.60;99.90;;;;;;5102663;28;20167;-85
2022/11/20 07:29:16;;;;;;;88.23;18.90;;;4.60;99.90;;;;;;5104754;28;20528;-85
2022/11/20 07:31:42;;;;;;;87.45;19.08;;;4.70;99.90;;;;;;5103336;28;20177;-85
2022/11/20 07:34:08;;;;;;;88.00;17.95;;;4.80;99.90;;;;;;5103320;28;20194;-85
2022/11/20 07:36:34;;;;;;;92.07;18.63;;;4.90;99.90;;;;;;5103760;28;20221;-85
2022/11/20 07:38:59;;;;;;;89.53;18.73;;;4.90;99.90;;;;;;5102660;28;20171;-84
2022/11/20 07:41:25;;;;;;;87.50;19.10;;;4.80;99.90;;;;;;5104818;28;20404;-85
2022/11/20 07:43:51;;;;;;;85.33;17.77;;;4.90;99.90;;;;;;5104078;28;20171;-85
2022/11/20 07:46:16;;;;;;;91.10;19.27;;;4.90;99.90;;;;;;5104171;28;20164;-85
2022/11/20 07:48:42;;;;;;;89.57;18.70;;;4.90;99.90;;;;;;5103686;28;20216;-85
2022/11/20 07:51:08;;;;;;;91.07;19.67;;;4.90;99.90;;;;;;5104321;28;20187;-85
2022/11/20 07:53:34;;;;;;;91.17;19.50;;;5.00;99.90;;;;;;5104032;28;20174;-85
2022/11/20 07:56:01;;;;;;;89.90;19.27;;;4.90;99.90;;;;;;5103444;28;20433;-85
2022/11/20 07:58:29;;;;;;;91.07;19.15;;;4.90;99.90;;;;;;5103536;28;20213;-85
2022/11/20 08:00:55;;;;;;;94.50;22.25;;;4.90;99.90;;;;;;5103716;28;20183;-85
2022/11/20 08:03:21;;;;;;;88.82;18.42;;;4.90;99.90;;;;;;5103173;28;20193;-85
2022/11/20 08:05:46;;;;;;;90.27;20.90;;;5.00;99.90;;;;;;5102585;28;20175;-85
2022/11/20 08:08:12;;;;;;;92.53;20.30;;;5.00;99.90;;;;;;5101949;28;20640;-85
2022/11/20 08:10:38;;;;;;;94.40;20.10;;;5.10;99.90;;;;;;5101422;28;20513;-85
2022/11/20 08:15:51;;;;;;;92.97;19.67;;;5.10;99.90;;;;;;5102854;28;20389;-85
2022/11/20 08:18:17;;;;;;;94.25;20.85;;;5.00;99.90;;;;;;5106104;28;20207;-85
2022/11/20 08:20:43;;;;;;;92.55;19.02;;;5.00;99.90;;;;;;5107112;28;20183;-85
2022/11/20 08:23:09;;;;;;;94.68;21.95;;;5.00;99.90;;;;;;5105813;28;20167;-85
2022/11/20 08:25:37;;;;;;;90.83;19.10;;;4.90;99.90;;;;;;5105672;28;20663;-85
2022/11/20 08:28:06;;;;;;;91.85;18.98;;;5.00;99.90;;;;;;5106675;28;20192;-85
2022/11/20 08:30:32;;;;;;;91.85;19.50;;;5.00;99.90;;;;;;5105134;28;20237;-85
2022/11/20 08:33:04;;;;;;;95.95;20.50;;;5.00;99.90;;;;;;5105575;28;20174;-85
2022/11/20 08:35:34;;;;;;;88.93;18.23;;;5.00;99.90;;;;;;5102363;28;20178;-85
2022/11/20 08:38:00;;;;;;;89.85;18.35;;;5.00;99.90;;;;;;5104209;28;20544;-85
2022/11/20 08:40:26;;;;;;;97.82;20.13;;;5.10;99.90;;;;;;5102359;28;20197;-85
2022/11/20 08:42:52;;;;;;;91.50;18.80;;;5.10;99.90;;;;;;5104321;28;20183;-85
2022/11/20 08:45:19;;;;;;;89.37;18.57;;;5.20;99.90;;;;;;5104089;28;20206;-85
2022/11/20 08:47:45;;;;;;;88.65;17.23;;;5.20;99.90;;;;;;5103748;28;20167;-85
2022/11/20 08:50:13;;;;;;;88.47;18.55;;;5.10;99.90;;;;;;5103355;28;20198;-85
2022/11/20 08:52:39;;;;;;;93.47;19.65;;;5.20;99.90;;;;;;5105955;28;20608;-85
2022/11/20 08:55:06;;;;;;;90.10;20.33;;;5.20;99.90;;;;;;5104628;28;20174;-85
2022/11/20 08:57:33;;;;;;;89.35;18.75;;;5.30;99.90;;;;;;5104705;28;20187;-85
2022/11/20 08:59:59;;;;;;;90.03;18.77;;;5.30;99.90;;;;;;5104088;28;20187;-85
2022/11/20 09:02:25;;;;;;;92.07;19.77;;;5.40;99.90;;;;;;5104811;28;20167;-85
2022/11/20 09:04:50;;;;;;;91.53;19.17;;;5.50;99.90;;;;;;5104272;28;20925;-85
2022/11/20 09:07:16;;;;;;;91.10;20.00;;;5.40;99.90;;;;;;5105335;28;20171;-84
2022/11/20 09:09:45;;;;;;;89.70;20.37;;;5.40;99.90;;;;;;5103690;28;20278;-85
2022/11/20 09:12:10;;;;;;;86.88;17.30;;;5.40;99.90;;;;;;5105557;28;20266;-85
2022/11/20 09:14:36;;;;;;;88.87;18.87;;;5.40;99.90;;;;;;5104911;28;20163;-85
2022/11/20 09:17:02;;;;;;;92.77;18.97;;;5.40;99.90;;;;;;5104165;28;20190;-85
2022/11/20 09:19:28;;;;;;;92.32;18.42;;;5.40;99.90;;;;;;5103888;28;20190;-85
2022/11/20 09:21:53;;;;;;;94.73;20.10;;;5.50;99.90;;;;;;5103300;28;20163;-85
2022/11/20 09:24:20;;;;;;;91.57;19.50;;;5.60;99.90;;;;;;5104443;28;20155;-85
2022/11/20 09:26:46;;;;;;;93.35;19.45;;;5.60;99.90;;;;;;5102951;28;20595;-85
2022/11/20 09:29:12;;;;;;;90.17;19.70;;;5.60;99.90;;;;;;5102971;28;20163;-85
2022/11/20 09:31:38;;;;;;;88.63;17.90;;;5.60;99.90;;;;;;5103675;28;20401;-85
2022/11/20 09:34:03;;;;;;;89.73;19.10;;;5.60;99.90;;;;;;5104564;28;20168;-85
2022/11/20 09:36:32;;;;;;;93.20;19.00;;;5.60;99.90;;;;;;5103796;28;20167;-85
2022/11/20 09:38:58;;;;;;;91.70;19.40;;;5.60;99.90;;;;;;5104545;28;20167;-84
2022/11/20 09:41:42;;;;;;;87.57;19.07;;;5.70;99.90;;;;;;5104971;28;20224;-85
2022/11/20 09:44:35;;;;;;;89.78;18.23;;;5.80;99.90;;;;;;5104365;28;20186;-85
2022/11/20 09:47:16;;;;;;;90.47;18.08;;;5.80;99.90;;;;;;5104166;28;20678;-85
2022/11/20 09:50:06;;;;;;;84.53;17.08;;;5.80;99.90;;;;;;5102720;28;20274;-85
2022/11/20 09:52:32;;;;;;;89.55;18.02;;;5.70;99.90;;;;;;5103546;28;20178;-85
2022/11/20 09:55:00;;;;;;;88.63;18.70;;;5.70;99.90;;;;;;5103745;28;20248;-85
2022/11/20 09:57:35;;;;;;;92.70;19.50;;;5.60;99.90;;;;;;5104236;28;20190;-85
2022/11/20 10:00:05;;;;;;;86.20;17.35;;;5.60;99.90;;;;;;5103945;28;20190;-85
2022/11/20 10:03:06;;;;;;;95.25;19.65;;;5.80;99.90;;;;;;5104103;28;20167;-85
2022/11/20 10:05:37;;;;;;;93.88;20.80;;;5.70;99.90;;;;;;5091693;28;20598;-85
2022/11/20 10:08:54;;;;;;;93.55;20.55;;;5.70;99.90;;;;;;5102013;28;20237;-84
2022/11/20 10:11:35;;;;;;;92.22;20.17;;;5.70;99.90;;;;;;5055096;28;20201;-85
2022/11/20 10:14:23;;;;;;;95.78;20.70;;;5.50;99.90;;;;;;5100515;28;20187;-85
2022/11/20 10:17:19;;;;;;;94.97;21.23;;;5.50;99.90;;;;;;5100778;28;20183;-85
2022/11/20 10:20:03;;;;;;;94.75;19.90;;;5.50;99.90;;;;;;5100101;28;20187;-85
2022/11/20 10:23:06;;;;;;;90.38;19.23;;;5.60;99.90;;;;;;5100363;28;20170;-85
2022/11/20 10:25:44;;;;;;;95.28;18.65;;;5.70;99.90;;;;;;5100039;28;20257;-85
2022/11/20 10:28:24;;;;;;;89.78;19.95;;;5.90;99.90;;;;;;5101393;28;20515;-85
2022/11/20 10:31:07;;;;;;;89.72;18.90;;;5.80;99.90;;;;;;5101122;28;20194;-85
2022/11/20 10:33:38;;;;;;;92.10;21.30;;;5.80;99.90;;;;;;5101854;28;20163;-85
2022/11/20 10:36:38;;;;;;;89.05;18.02;;;5.80;99.90;;;;;;5103830;28;20147;-85
2022/11/20 10:39:11;;;;;;;88.22;17.25;;;5.90;99.90;;;;;;5103040;28;20167;-85
2022/11/20 10:41:41;;;;;;;94.30;23.33;;;5.90;99.90;;;;;;5102224;28;20170;-85
2022/11/20 10:45:00;;;;;;;91.82;19.65;;;5.90;99.90;;;;;;5101485;28;20242;-85
2022/11/20 10:47:18;;;;;;;91.35;19.27;;;5.90;99.90;;;;;;5102992;28;20167;-85
2022/11/20 10:49:48;;;;;;;89.30;19.17;;;6.00;99.90;;;;;;5102184;28;20678;-85
2022/11/20 10:52:41;;;;;;;91.38;20.52;;;5.90;99.90;;;;;;5102738;28;20163;-85
2022/11/20 10:55:10;;;;;;;87.82;18.90;;;5.90;99.90;;;;;;5101550;28;20659;-85
2022/11/20 10:57:42;;;;;;;92.60;18.92;;;6.00;99.90;;;;;;5100981;28;20191;-85
2022/11/20 11:00:13;;;;;;;91.85;18.77;;;5.90;99.90;;;;;;5102738;28;20187;-85
2022/11/20 11:02:51;;;;;;;86.55;16.70;;;5.90;99.90;;;;;;5100977;28;20257;-85
2022/11/20 11:05:19;;;;;;;90.00;19.77;;;6.00;99.90;;;;;;5102253;28;20152;-85
2022/11/20 11:07:48;;;;;;;93.03;20.75;;;5.80;99.90;;;;;;5102308;28;20166;-85
2022/11/20 11:10:35;;;;;;;89.97;21.23;;;5.80;99.90;;;;;;5102338;28;20186;-85
2022/11/20 11:13:01;;;;;;;94.95;20.10;;;5.80;99.90;;;;;;5102633;28;20173;-85
2022/11/20 11:15:38;;;;;;;95.17;22.43;;;5.80;99.90;;;;;;5100750;28;20170;-85
2022/11/20 11:18:04;;;;;;;90.43;20.02;;;5.90;99.90;;;;;;5102790;28;20433;-85
2022/11/20 11:20:31;;;;;;;90.13;18.77;;;5.90;99.90;;;;;;5102614;28;20189;-85
2022/11/20 11:22:58;;;;;;;92.15;19.20;;;6.00;99.90;;;;;;5102793;28;20163;-85
2022/11/20 11:25:28;;;;;;;90.85;19.17;;;6.20;99.90;;;;;;5102862;28;20174;-85
2022/11/20 11:28:19;;;;;;;91.30;18.92;;;6.20;99.90;;;;;;5101454;28;20170;-85
2022/11/20 11:30:48;;;;;;;91.57;20.85;;;6.10;99.90;;;;;;5101832;28;20786;-85
2022/11/20 11:33:28;;;;;;;88.53;20.50;;;6.10;99.90;;;;;;5101085;28;20175;-85
2022/11/20 11:35:57;;;;;;;92.93;20.30;;;6.00;99.90;;;;;;5101687;28;20147;-85
2022/11/20 11:38:38;;;;;;;89.30;19.40;;;5.90;99.90;;;;;;5101495;28;20193;-85
2022/11/20 11:41:07;;;;;;;87.85;18.98;;;6.00;99.90;;;;;;5100263;28;20193;-85
2022/11/20 11:46:31;;;;;;;93.05;18.45;;;6.00;99.90;;;;;;5100469;28;20174;-86
2022/11/20 11:49:03;;;;;;;93.30;19.88;;;6.00;99.90;;;;;;5100106;28;20177;-86
2022/11/20 11:51:57;;;;;;;89.07;20.30;;;6.00;99.90;;;;;;5080568;28;20205;-86
2022/11/20 11:54:43;;;;;;;89.93;18.77;;;6.00;99.90;;;;;;5083288;28;20205;-86
2022/11/20 11:57:16;;;;;;;89.07;17.58;;;6.00;99.90;;;;;;5084598;28;20184;-86
2022/11/20 11:59:54;;;;;;;87.70;17.35;;;6.00;99.90;;;;;;5082685;28;20183;-86
2022/11/20 12:02:29;;;;;;;88.85;18.63;;;6.10;99.90;;;;;;5082800;28;20148;-86
2022/11/20 12:05:01;;;;;;;89.57;19.30;;;6.00;99.90;;;;;;5082712;28;20155;-86
2022/11/20 12:08:05;;;;;;;85.90;17.38;;;6.00;99.90;;;;;;5082968;28;20163;-86
2022/11/20 12:10:49;;;;;;;88.65;18.73;;;6.00;99.90;;;;;;5082548;28;20187;-86
2022/11/20 12:13:23;;;;;;;87.93;17.92;;;6.10;99.90;;;;;;5083762;28;20156;-86
2022/11/20 12:15:55;;;;;;;91.40;19.92;;;6.20;99.90;;;;;;5082515;28;20212;-86
2022/11/20 12:18:22;;;;;;;90.38;20.23;;;6.20;99.90;;;;;;5082089;28;20297;-86
2022/11/20 12:21:05;;;;;;;96.68;20.08;;;6.10;99.90;;;;;;5081967;28;20208;-86
2022/11/20 12:23:45;;;;;;;87.05;19.02;;;6.00;99.90;;;;;;5082245;28;20148;-86
2022/11/20 12:26:43;;;;;;;92.57;19.33;;;6.10;99.90;;;;;;5080684;28;20160;-86
2022/11/20 12:29:26;;;;;;;91.65;18.70;;;6.10;99.90;;;;;;5079018;28;20178;-86
2022/11/20 12:32:31;;;;;;;92.05;19.77;;;6.10;99.90;;;;;;5081986;28;20155;-86
2022/11/20 12:35:24;;;;;;;86.68;18.25;;;6.10;99.90;;;;;;5081286;28;20151;-86
2022/11/20 12:38:14;;;;;;;94.40;18.08;;;6.30;99.90;;;;;;5082162;28;20179;-86
2022/11/20 12:40:59;;;;;;;91.75;18.38;;;6.40;99.90;;;;;;5064274;28;20568;-86
2022/11/20 12:46:34;;;;;;;87.95;19.98;;;6.40;99.90;;;;;;5082439;28;20202;-86
2022/11/20 12:49:18;;;;;;;86.97;17.48;;;6.50;99.90;;;;;;5082405;28;20144;-85
2022/11/20 12:54:17;;;;;;;88.65;17.67;;;6.80;99.90;;;;;;5098573;28;20199;-84
2022/11/20 12:57:21;;;;;;;89.93;20.33;;;6.80;99.90;;;;;;5101870;28;20501;-84
2022/11/20 13:00:04;;;;;;;93.18;19.13;;;6.50;99.90;;;;;;5060550;28;20258;-84
2022/11/20 13:03:23;;;;;;;97.55;20.95;;;6.50;99.90;;;;;;5103116;28;20147;-84
2022/11/20 13:06:02;;;;;;;87.32;17.67;;;6.50;99.90;;;;;;5103162;28;20679;-84
2022/11/20 13:08:40;;;;;;;92.13;20.08;;;6.40;99.90;;;;;;5102935;28;20155;-84